createdAt,value
2022-08-26T00:00:59.616Z,29.05
2022-08-26T00:03:26.604Z,29.02
2022-08-26T00:05:54.756Z,29.01
2022-08-26T00:08:22.975Z,29.04
2022-08-26T00:10:51.146Z,28.99
2022-08-26T00:13:19.623Z,28.99
2022-08-26T00:15:46.661Z,28.99
2022-08-26T00:18:21.892Z,29.04
2022-08-26T00:20:50.234Z,29.01
2022-08-26T00:23:17.394Z,28.98
2022-08-26T00:25:44.271Z,28.96
2022-08-26T00:28:12.869Z,28.94
2022-08-26T00:30:41.454Z,28.94
2022-08-26T00:33:09.522Z,28.96
2022-08-26T00:35:38.486Z,28.98
2022-08-26T00:38:13.047Z,28.98
2022-08-26T00:40:51.743Z,29.02
2022-08-26T00:43:20.793Z,28.95
2022-08-26T00:45:55.765Z,28.98
2022-08-26T00:48:26.316Z,28.95
2022-08-26T00:51:04.574Z,28.96
2022-08-26T00:53:39.287Z,28.98
2022-08-26T00:56:14.980Z,29.02
2022-08-26T00:58:44.552Z,28.99
2022-08-26T01:01:12.632Z,29.01
2022-08-26T01:03:43.134Z,28.98
2022-08-26T01:06:13.126Z,28.96
2022-08-26T01:08:40.641Z,28.94
2022-08-26T01:11:09.144Z,28.95
2022-08-26T01:13:37.819Z,28.91
2022-08-26T01:16:12.671Z,28.92
2022-08-26T01:18:41.677Z,28.88
2022-08-26T01:21:21.439Z,28.88
2022-08-26T01:23:57.461Z,28.87
2022-08-26T01:26:32.313Z,28.88
2022-08-26T01:29:04.717Z,28.88
2022-08-26T01:31:38.405Z,28.87
2022-08-26T01:34:13.681Z,28.85
2022-08-26T01:36:42.238Z,28.82
2022-08-26T01:39:11.767Z,28.84
2022-08-26T01:41:40.821Z,28.78
2022-08-26T01:44:18.437Z,28.78
2022-08-26T01:46:49.857Z,28.75
2022-08-26T01:49:19.363Z,28.75
2022-08-26T01:51:49.426Z,28.74
2022-08-26T01:54:17.924Z,28.74
2022-08-26T01:56:48.608Z,28.74
2022-08-26T01:59:18.340Z,28.75
2022-08-26T02:01:47.584Z,28.69
2022-08-26T02:04:21.441Z,28.68
2022-08-26T02:06:50.919Z,28.69
2022-08-26T02:09:21.413Z,28.72
2022-08-26T02:11:48.729Z,28.72
2022-08-26T02:14:23.952Z,28.79
2022-08-26T02:16:55.322Z,28.79
2022-08-26T02:19:30.536Z,28.82
2022-08-26T02:22:01.415Z,28.78
2022-08-26T02:24:48.783Z,28.81
2022-08-26T02:27:18.290Z,28.71
2022-08-26T02:29:52.207Z,28.71
2022-08-26T02:32:19.550Z,28.65
2022-08-26T02:34:47.165Z,28.60
2022-08-26T02:37:14.164Z,28.57
2022-08-26T02:39:43.765Z,28.50
2022-08-26T02:42:10.921Z,28.44
2022-08-26T02:44:38.553Z,28.43
2022-08-26T02:47:07.886Z,28.43
2022-08-26T02:49:36.289Z,28.43
2022-08-26T02:52:04.659Z,28.45
2022-08-26T02:54:31.778Z,28.47
2022-08-26T02:57:02.638Z,28.48
2022-08-26T02:59:30.438Z,28.50
2022-08-26T03:01:57.932Z,28.54
2022-08-26T03:04:25.919Z,28.53
2022-08-26T03:06:53.493Z,28.54
2022-08-26T03:09:22.876Z,28.54
2022-08-26T03:11:50.531Z,28.54
2022-08-26T03:14:19.059Z,28.61
2022-08-26T03:16:48.617Z,28.65
2022-08-26T03:19:17.692Z,28.67
2022-08-26T03:21:45.119Z,28.74
2022-08-26T03:24:16.230Z,28.74
2022-08-26T03:26:52.455Z,28.78
2022-08-26T03:29:22.489Z,28.78
2022-08-26T03:31:49.558Z,28.81
2022-08-26T03:34:17.256Z,28.78
2022-08-26T03:36:44.955Z,28.78
2022-08-26T03:39:14.119Z,28.74
2022-08-26T03:41:41.788Z,28.69
2022-08-26T03:44:08.899Z,28.64
2022-08-26T03:46:39.050Z,28.63
2022-08-26T03:49:07.443Z,28.60
2022-08-26T03:51:38.655Z,28.57
2022-08-26T03:54:08.163Z,28.53
2022-08-26T03:56:36.010Z,28.51
2022-08-26T03:59:04.677Z,28.48
2022-08-26T04:01:35.338Z,28.45
2022-08-26T04:04:04.596Z,28.47
2022-08-26T04:06:37.653Z,28.48
2022-08-26T04:09:09.350Z,28.48
2022-08-26T04:11:39.336Z,28.50
2022-08-26T04:14:20.055Z,28.57
2022-08-26T04:16:48.421Z,28.60
2022-08-26T04:19:18.664Z,28.58
2022-08-26T04:21:49.343Z,28.54
2022-08-26T04:24:17.633Z,28.51
2022-08-26T04:26:45.011Z,28.51
2022-08-26T04:29:15.012Z,28.51
2022-08-26T04:31:42.364Z,28.50
2022-08-26T04:34:10.926Z,28.48
2022-08-26T04:36:39.983Z,28.51
2022-08-26T04:39:10.513Z,28.48
2022-08-26T04:41:38.533Z,28.51
2022-08-26T04:44:07.441Z,28.58
2022-08-26T04:46:35.114Z,28.58
2022-08-26T04:49:03.704Z,28.60
2022-08-26T04:51:30.763Z,28.63
2022-08-26T04:53:59.708Z,28.64
2022-08-26T04:56:30.339Z,28.67
2022-08-26T04:58:57.432Z,28.69
2022-08-26T05:01:24.769Z,28.68
2022-08-26T05:03:52.049Z,28.71
2022-08-26T05:06:19.430Z,28.71
2022-08-26T05:08:46.766Z,28.72
2022-08-26T05:11:15.389Z,28.69
2022-08-26T05:13:42.939Z,28.71
2022-08-26T05:16:14.460Z,28.68
2022-08-26T05:18:44.169Z,28.65
2022-08-26T05:21:19.527Z,28.64
2022-08-26T05:23:47.199Z,28.55
2022-08-26T05:26:22.876Z,28.60
2022-08-26T05:28:50.639Z,28.57
2022-08-26T05:31:23.735Z,28.60
2022-08-26T05:33:51.072Z,28.61
2022-08-26T05:36:21.722Z,28.61
2022-08-26T05:38:49.630Z,28.58
2022-08-26T05:41:22.393Z,28.57
2022-08-26T05:43:49.388Z,28.54
2022-08-26T05:46:17.410Z,28.53
2022-08-26T05:48:44.586Z,28.63
2022-08-26T05:51:12.586Z,28.68
2022-08-26T05:53:43.983Z,28.71
2022-08-26T05:56:23.860Z,28.74
2022-08-26T05:58:50.795Z,28.78
2022-08-26T06:01:21.645Z,28.82
2022-08-26T06:03:56.321Z,28.87
2022-08-26T06:06:28.581Z,28.94
2022-08-26T06:08:57.616Z,29.02
2022-08-26T06:11:28.485Z,29.11
2022-08-26T06:14:03.074Z,29.14
2022-08-26T06:16:33.766Z,29.11
2022-08-26T06:19:03.168Z,29.11
2022-08-26T06:21:33.395Z,29.15
2022-08-26T06:24:05.496Z,29.14
2022-08-26T06:26:34.639Z,29.11
2022-08-26T06:29:05.230Z,29.14
2022-08-26T06:31:33.705Z,29.20
2022-08-26T06:34:02.042Z,29.25
2022-08-26T06:36:30.833Z,29.32
2022-08-26T06:39:03.294Z,29.46
2022-08-26T06:41:30.553Z,29.52
2022-08-26T06:43:59.248Z,29.64
2022-08-26T06:46:27.218Z,29.70
2022-08-26T06:48:55.223Z,29.70
2022-08-26T06:51:24.821Z,29.78
2022-08-26T06:53:54.109Z,29.81
2022-08-26T06:56:24.207Z,29.90
2022-08-26T06:58:53.408Z,29.96
2022-08-26T07:01:29.411Z,30.08
2022-08-26T07:04:00.203Z,30.11
2022-08-26T07:06:28.250Z,30.11
2022-08-26T07:09:03.404Z,30.15
2022-08-26T07:11:30.938Z,30.13
2022-08-26T07:13:58.321Z,30.14
2022-08-26T07:16:27.600Z,30.25
2022-08-26T07:18:54.834Z,30.35
2022-08-26T07:21:23.273Z,30.47
2022-08-26T07:23:51.813Z,30.56
2022-08-26T07:26:22.952Z,30.72
2022-08-26T07:28:54.856Z,30.85
2022-08-26T07:31:26.804Z,30.97
2022-08-26T07:33:54.819Z,31.07
2022-08-26T07:36:24.670Z,31.23
2022-08-26T07:38:52.290Z,31.29
2022-08-26T07:41:23.317Z,31.33
2022-08-26T07:43:51.429Z,31.43
2022-08-26T07:46:26.900Z,31.57
2022-08-26T07:48:56.012Z,31.63
2022-08-26T07:51:23.490Z,31.70
2022-08-26T07:53:53.243Z,31.89
2022-08-26T07:56:20.560Z,32.12
2022-08-26T07:58:50.955Z,32.33
2022-08-26T08:01:19.089Z,32.40
2022-08-26T08:03:47.167Z,32.48
2022-08-26T08:06:19.155Z,32.49
2022-08-26T08:08:46.356Z,32.53
2022-08-26T08:11:14.464Z,32.63
2022-08-26T08:13:41.532Z,32.75
2022-08-26T08:16:08.395Z,32.82
2022-08-26T08:18:40.101Z,32.90
2022-08-26T08:21:24.083Z,32.95
2022-08-26T08:23:55.676Z,33.03
2022-08-26T08:26:23.927Z,33.11
2022-08-26T08:28:54.516Z,33.16
2022-08-26T08:31:52.410Z,33.34
2022-08-26T08:34:11.520Z,33.50
2022-08-26T08:36:38.396Z,33.70
2022-08-26T08:39:06.967Z,33.82
2022-08-26T08:41:54.702Z,34.02
2022-08-26T08:44:31.540Z,34.11
2022-08-26T08:47:08.905Z,34.35
2022-08-26T08:49:36.813Z,34.45
2022-08-26T08:52:20.264Z,34.70
2022-08-26T08:54:48.757Z,34.90
2022-08-26T08:57:26.013Z,35.21
2022-08-26T09:00:08.263Z,35.35
2022-08-26T09:02:45.473Z,35.42
2022-08-26T09:05:22.068Z,35.57
2022-08-26T09:07:57.120Z,35.62
2022-08-26T09:10:39.166Z,35.79
2022-08-26T09:13:13.629Z,35.92
2022-08-26T09:15:58.706Z,36.13
2022-08-26T09:18:47.534Z,36.39
2022-08-26T09:21:18.372Z,36.62
2022-08-26T09:23:49.487Z,36.86
2022-08-26T09:26:25.994Z,37.15
2022-08-26T09:28:59.933Z,37.54
2022-08-26T09:31:30.815Z,37.76
2022-08-26T09:34:17.265Z,37.99
2022-08-26T09:36:48.616Z,38.12
2022-08-26T09:39:34.602Z,38.52
2022-08-26T09:42:12.421Z,38.67
2022-08-26T09:44:57.470Z,38.93
2022-08-26T09:47:29.318Z,39.07
2022-08-26T09:50:05.362Z,39.11
2022-08-26T09:52:37.789Z,39.21
2022-08-26T09:55:20.001Z,39.17
2022-08-26T09:57:54.423Z,39.15
2022-08-26T10:00:33.433Z,39.28
2022-08-26T10:03:04.796Z,39.37
2022-08-26T10:05:41.219Z,39.48
2022-08-26T10:08:26.214Z,39.55
2022-08-26T10:10:55.015Z,39.45
2022-08-26T10:13:33.436Z,39.44
2022-08-26T10:16:13.657Z,39.58
2022-08-26T10:18:46.644Z,39.75
2022-08-26T10:21:20.800Z,39.94
2022-08-26T10:23:52.886Z,40.04
2022-08-26T10:26:31.470Z,40.04
2022-08-26T10:29:10.493Z,40.13
2022-08-26T10:31:44.590Z,40.00
2022-08-26T10:34:14.075Z,39.99
2022-08-26T10:37:13.947Z,40.02
2022-08-26T10:39:49.220Z,39.94
2022-08-26T10:42:28.947Z,39.89
2022-08-26T10:45:05.791Z,39.97
2022-08-26T10:47:43.143Z,39.92
2022-08-26T10:50:11.482Z,39.82
2022-08-26T10:52:58.905Z,39.86
2022-08-26T10:55:40.649Z,39.82
2022-08-26T10:58:28.372Z,39.85
2022-08-26T11:04:13.886Z,39.86
2022-08-26T11:06:40.912Z,39.86
2022-08-26T11:09:09.200Z,39.96
2022-08-26T11:11:57.324Z,40.06
2022-08-26T11:14:42.078Z,40.14
2022-08-26T11:18:00.293Z,40.39
2022-08-26T11:20:39.152Z,40.48
2022-08-26T11:23:50.487Z,40.57
2022-08-26T11:26:35.563Z,40.39
2022-08-26T11:29:12.212Z,40.29
2022-08-26T11:31:56.235Z,40.29
2022-08-26T11:34:58.368Z,40.47
2022-08-26T11:37:32.577Z,40.61
2022-08-26T11:40:02.998Z,40.83
2022-08-26T11:42:38.061Z,41.11
2022-08-26T11:45:21.376Z,41.34
2022-08-26T11:47:49.457Z,41.47
2022-08-26T11:50:22.777Z,41.70
2022-08-26T11:52:57.409Z,41.87
2022-08-26T11:55:24.436Z,41.92
2022-08-26T11:57:55.091Z,41.69
2022-08-26T12:00:24.400Z,41.36
2022-08-26T12:02:52.784Z,41.06
2022-08-26T12:05:29.554Z,41.01
2022-08-26T12:08:07.134Z,41.04
2022-08-26T12:10:35.842Z,41.12
2022-08-26T12:13:05.556Z,41.24
2022-08-26T12:15:35.433Z,41.24
2022-08-26T12:18:22.086Z,41.22
2022-08-26T12:21:01.631Z,41.08
2022-08-26T12:23:41.389Z,41.02
2022-08-26T12:26:18.257Z,41.05
2022-08-26T12:28:48.607Z,40.95
2022-08-26T12:31:25.399Z,40.85
2022-08-26T12:36:52.017Z,40.45
2022-08-26T12:39:27.278Z,40.41
2022-08-26T12:41:58.076Z,40.20
2022-08-26T12:44:53.621Z,40.03
2022-08-26T12:47:41.968Z,39.88
2022-08-26T12:50:17.880Z,39.93
2022-08-26T12:52:58.936Z,39.96
2022-08-26T12:55:37.789Z,39.99
2022-08-26T12:58:26.920Z,40.02
2022-08-26T13:00:56.967Z,39.92
2022-08-26T13:03:43.420Z,39.86
2022-08-26T13:06:26.706Z,39.75
2022-08-26T13:08:58.317Z,39.63
2022-08-26T13:11:28.954Z,39.53
2022-08-26T13:14:00.108Z,39.42
2022-08-26T13:16:29.776Z,39.37
2022-08-26T13:18:59.814Z,39.28
2022-08-26T13:21:37.266Z,39.25
2022-08-26T13:24:11.266Z,39.21
2022-08-26T13:26:38.465Z,39.14
2022-08-26T13:29:10.017Z,39.07
2022-08-26T13:31:41.341Z,39.04
2022-08-26T13:34:10.634Z,39.00
2022-08-26T13:36:37.685Z,38.87
2022-08-26T13:39:06.733Z,38.75
2022-08-26T13:41:33.683Z,38.54
2022-08-26T13:44:00.855Z,38.24
2022-08-26T13:46:29.131Z,37.89
2022-08-26T13:48:56.428Z,37.48
2022-08-26T13:51:25.091Z,37.06
2022-08-26T13:53:52.999Z,36.67
2022-08-26T13:56:21.888Z,36.22
2022-08-26T13:58:49.572Z,35.92
2022-08-26T14:01:17.682Z,35.55
2022-08-26T14:03:45.669Z,35.17
2022-08-26T14:06:13.374Z,34.79
2022-08-26T14:08:41.455Z,34.45
2022-08-26T14:11:08.906Z,34.06
2022-08-26T14:13:37.581Z,33.72
2022-08-26T14:16:10.196Z,33.47
2022-08-26T14:18:44.326Z,33.27
2022-08-26T14:21:14.396Z,33.11
2022-08-26T14:23:41.496Z,32.86
2022-08-26T14:26:08.697Z,32.52
2022-08-26T14:28:37.478Z,32.17
2022-08-26T14:31:05.801Z,31.89
2022-08-26T14:33:37.037Z,31.60
2022-08-26T14:36:05.193Z,31.43
2022-08-26T14:38:32.073Z,31.34
2022-08-26T14:40:59.159Z,31.26
2022-08-26T14:43:26.215Z,31.26
2022-08-26T14:45:54.547Z,31.16
2022-08-26T14:48:21.341Z,31.06
2022-08-26T14:50:48.516Z,31.00
2022-08-26T14:56:07.157Z,31.06
2022-08-26T14:58:34.893Z,31.15
2022-08-26T15:01:04.381Z,31.25
2022-08-26T15:03:56.760Z,31.30
2022-08-26T15:06:24.118Z,31.40
2022-08-26T15:08:51.048Z,31.57
2022-08-26T15:11:18.070Z,31.81
2022-08-26T15:13:45.467Z,32.08
2022-08-26T15:16:15.010Z,32.49
2022-08-26T15:18:42.796Z,32.87
2022-08-26T15:21:09.972Z,33.30
2022-08-26T15:23:39.015Z,33.67
2022-08-26T15:26:09.856Z,33.97
2022-08-26T15:28:37.877Z,34.23
2022-08-26T15:31:05.794Z,34.43
2022-08-26T15:33:34.142Z,34.66
2022-08-26T15:36:01.919Z,34.96
2022-08-26T15:38:29.983Z,35.27
2022-08-26T15:41:01.009Z,35.55
2022-08-26T15:43:30.794Z,35.86
2022-08-26T15:45:58.137Z,36.15
2022-08-26T15:48:26.083Z,36.40
2022-08-26T15:50:58.497Z,36.63
2022-08-26T15:53:26.299Z,36.81
2022-08-26T15:55:55.457Z,36.83
2022-08-26T15:58:25.103Z,36.80
2022-08-26T16:00:54.448Z,36.70
2022-08-26T16:03:22.159Z,36.63
2022-08-26T16:05:49.551Z,36.52
2022-08-26T16:08:18.142Z,36.42
2022-08-26T16:10:50.268Z,36.28
2022-08-26T16:13:20.079Z,36.18
2022-08-26T16:15:50.509Z,36.06
2022-08-26T16:18:17.625Z,35.95
2022-08-26T16:21:12.738Z,35.82
2022-08-26T16:23:39.915Z,35.66
2022-08-26T16:26:10.692Z,35.59
2022-08-26T16:28:38.252Z,35.42
2022-08-26T16:31:06.938Z,35.35
2022-08-26T16:33:33.965Z,35.26
2022-08-26T16:36:00.850Z,35.17
2022-08-26T16:38:27.762Z,35.04
2022-08-26T16:40:56.246Z,34.94
2022-08-26T16:43:23.200Z,34.80
2022-08-26T16:45:50.067Z,34.71
2022-08-26T16:48:17.220Z,34.60
2022-08-26T16:50:44.122Z,34.49
2022-08-26T16:55:45.036Z,34.29
2022-08-26T16:58:13.603Z,34.23
2022-08-26T17:00:40.797Z,34.16
2022-08-26T17:03:08.034Z,34.08
2022-08-26T17:05:35.195Z,34.04
2022-08-26T17:08:03.330Z,33.95
2022-08-26T17:10:31.199Z,33.89
2022-08-26T17:12:58.492Z,33.79
2022-08-26T17:15:27.199Z,33.74
2022-08-26T17:17:55.014Z,33.65
2022-08-26T17:20:24.248Z,33.58
2022-08-26T17:22:54.777Z,33.47
2022-08-26T17:25:26.148Z,33.34
2022-08-26T17:27:53.724Z,33.19
2022-08-26T17:30:22.371Z,33.04
2022-08-26T17:32:51.351Z,32.91
2022-08-26T17:35:18.837Z,32.84
2022-08-26T17:37:45.776Z,32.72
2022-08-26T17:40:20.052Z,32.56
2022-08-26T17:42:47.027Z,32.42
2022-08-26T17:45:15.488Z,32.25
2022-08-26T17:47:42.669Z,32.08
2022-08-26T17:50:14.795Z,31.99
2022-08-26T17:52:43.605Z,31.91
2022-08-26T17:55:14.324Z,31.87
2022-08-26T17:57:44.204Z,31.81
2022-08-26T18:00:25.939Z,31.78
2022-08-26T18:03:03.772Z,31.80
2022-08-26T18:05:35.179Z,31.76
2022-08-26T18:08:11.959Z,31.76
2022-08-26T18:10:42.814Z,31.74
2022-08-26T18:13:11.030Z,31.70
2022-08-26T18:15:38.847Z,31.64
2022-08-26T18:18:05.999Z,31.61
2022-08-26T18:20:33.326Z,31.57
2022-08-26T18:23:01.791Z,31.58
2022-08-26T18:25:28.663Z,31.53
2022-08-26T18:27:56.125Z,31.53
2022-08-26T18:30:23.288Z,31.41
2022-08-26T18:32:51.667Z,31.37
2022-08-26T18:35:19.782Z,31.31
2022-08-26T18:37:47.814Z,31.27
2022-08-26T18:40:17.677Z,31.23
2022-08-26T18:42:44.538Z,31.20
2022-08-26T18:45:16.291Z,31.22
2022-08-26T18:47:43.869Z,31.16
2022-08-26T18:50:11.019Z,31.13
2022-08-26T18:52:39.288Z,31.09
2022-08-26T18:55:06.765Z,31.04
2022-08-26T18:57:35.660Z,31.03
2022-08-26T19:00:05.288Z,31.00
2022-08-26T19:02:32.439Z,30.96
2022-08-26T19:04:59.363Z,30.95
2022-08-26T19:07:26.537Z,30.95
2022-08-26T19:09:54.053Z,30.90
2022-08-26T19:12:21.445Z,30.89
2022-08-26T19:14:49.681Z,30.86
2022-08-26T19:17:16.602Z,30.80
2022-08-26T19:19:43.446Z,30.72
2022-08-26T19:22:12.889Z,30.74
2022-08-26T19:24:39.905Z,30.71
2022-08-26T19:27:06.832Z,30.69
2022-08-26T19:29:36.029Z,30.68
2022-08-26T19:32:05.439Z,30.66
2022-08-26T19:34:32.605Z,30.62
2022-08-26T19:37:01.110Z,30.66
2022-08-26T19:39:28.132Z,30.68
2022-08-26T19:42:00.884Z,30.68
2022-08-26T19:44:28.150Z,30.68
2022-08-26T19:46:55.125Z,30.68
2022-08-26T19:49:23.477Z,30.71
2022-08-26T19:51:50.294Z,30.68
2022-08-26T19:54:17.328Z,30.65
2022-08-26T19:56:45.902Z,30.61
2022-08-26T19:59:16.134Z,30.56
2022-08-26T20:01:43.170Z,30.49
2022-08-26T20:04:10.434Z,30.45
2022-08-26T20:06:38.846Z,30.34
2022-08-26T20:09:05.889Z,30.28
2022-08-26T20:11:33.038Z,30.23
2022-08-26T20:13:59.876Z,30.15
2022-08-26T20:16:26.800Z,30.15
2022-08-26T20:18:53.747Z,30.14
2022-08-26T20:21:20.789Z,30.13
2022-08-26T20:23:49.005Z,30.10
2022-08-26T20:26:16.040Z,30.05
2022-08-26T20:28:43.534Z,30.03
2022-08-26T20:31:10.740Z,29.97
2022-08-26T20:33:45.963Z,29.97
2022-08-26T20:36:14.277Z,29.91
2022-08-26T20:38:41.275Z,29.90
2022-08-26T20:41:09.724Z,29.88
2022-08-26T20:43:36.612Z,29.84
2022-08-26T20:46:03.931Z,29.86
2022-08-26T20:48:35.276Z,29.83
2022-08-26T20:51:02.446Z,29.84
2022-08-26T20:53:30.176Z,29.84
2022-08-26T20:56:00.746Z,29.86
2022-08-26T20:58:29.685Z,29.83
2022-08-26T21:00:57.477Z,29.84
2022-08-26T21:03:25.004Z,29.84
2022-08-26T21:05:51.992Z,29.83
2022-08-26T21:08:22.178Z,29.83
2022-08-26T21:10:49.175Z,29.81
2022-08-26T21:13:16.330Z,29.78
2022-08-26T21:15:45.228Z,29.74
2022-08-26T21:18:12.295Z,29.67
2022-08-26T21:20:39.148Z,29.60
2022-08-26T21:23:07.035Z,29.57
2022-08-26T21:25:34.121Z,29.57
2022-08-26T21:28:01.338Z,29.55
2022-08-26T21:30:28.573Z,29.55
2022-08-26T21:32:57.590Z,29.53
2022-08-26T21:35:24.531Z,29.52
2022-08-26T21:37:51.598Z,29.53
2022-08-26T21:40:19.022Z,29.53
2022-08-26T21:42:48.022Z,29.50
2022-08-26T21:45:14.972Z,29.46
2022-08-26T21:47:42.037Z,29.45
2022-08-26T21:50:10.379Z,29.45
2022-08-26T21:52:37.981Z,29.37
2022-08-26T21:55:08.781Z,29.33
2022-08-26T21:57:36.206Z,29.27
2022-08-26T22:00:06.017Z,29.22
2022-08-26T22:02:33.258Z,29.18
2022-08-26T22:05:00.338Z,29.16
2022-08-26T22:07:28.961Z,29.19
2022-08-26T22:09:55.971Z,29.12
2022-08-26T22:12:22.906Z,29.11
2022-08-26T22:14:49.814Z,29.11
2022-08-26T22:17:16.878Z,29.06
2022-08-26T22:19:46.223Z,29.09
2022-08-26T22:22:14.215Z,29.08
2022-08-26T22:24:43.005Z,29.12
2022-08-26T22:27:11.356Z,29.12
2022-08-26T22:29:38.287Z,29.16
2022-08-26T22:32:06.235Z,29.11
2022-08-26T22:34:33.241Z,29.02
2022-08-26T22:37:01.069Z,28.98
2022-08-26T22:39:28.058Z,28.96
2022-08-26T22:41:56.377Z,28.94
2022-08-26T22:44:24.197Z,28.94
2022-08-26T22:46:53.077Z,28.94
2022-08-26T22:49:21.285Z,28.92
2022-08-26T22:51:48.227Z,28.91
2022-08-26T22:54:16.409Z,28.91
2022-08-26T22:56:44.595Z,28.88
2022-08-26T22:59:13.691Z,28.91
2022-08-26T23:01:43.102Z,28.94
2022-08-26T23:04:10.821Z,28.90
2022-08-26T23:06:41.511Z,28.90
2022-08-26T23:09:09.668Z,28.92
2022-08-26T23:11:37.548Z,28.92
2022-08-26T23:14:06.469Z,28.95
2022-08-26T23:16:39.581Z,28.98
2022-08-26T23:19:07.995Z,28.96
2022-08-26T23:21:35.361Z,28.94
2022-08-26T23:24:02.719Z,28.92
2022-08-26T23:26:29.915Z,28.94
2022-08-26T23:28:56.747Z,28.94
2022-08-26T23:31:24.004Z,28.94
2022-08-26T23:33:52.340Z,28.96
2022-08-26T23:36:22.525Z,29.04
2022-08-26T23:38:53.128Z,29.05
2022-08-26T23:41:21.000Z,29.08
2022-08-26T23:43:48.089Z,29.14
2022-08-26T23:46:15.424Z,29.11
2022-08-26T23:48:42.375Z,29.11
2022-08-26T23:51:11.536Z,29.14
2022-08-26T23:53:38.398Z,29.11
2022-08-26T23:56:11.682Z,29.11
2022-08-26T23:58:38.540Z,29.11
